FIMR METAR and TAF | Updated Today

FIMR METAR

Sir Charles Gaetan Duval Airport

Sir Charles Gaetan Duval Airport (FIMR) hasn't published a METAR.
We found the following current weather conditions for Plaine Corail from other sources.

Sir Charles Gaetan Duval Airport (FIMR) METAR

  • Weather conditions right now at FIMR:
  • Present conditions: Clear
  • Clouds: Clear sky
  • Cloud cover: 0%
  • Wind: 145 at 17kts
  • Temperature: 21.1 celsius
  • Feels like: 21.1 celsius
  • Pressure: 1017mb
  • Humidity: 70%


Useful to know...

FIMR TAF

Sir Charles Gaetan Duval Airport

TAF COR FIMR 291705Z 2918/3012 13020G30KT 9999 SCT017 TEMPO 2918/3000 7000 -SHRA BKN016
Observation time: 3:03 hr. ago
Need help? Read our tutorial on how to read TAFs or read the parsed version below.

Parsed version of TAF for Sir Charles Gaetan Duval Airport (FIMR)

  • From 29 September at 18:00 UTC, to day 30 of the month at 12:00 UTC
  • Clouds: Scattered at 518 meters
  • Visibility: Greater than 10 km
  • Wind: 130 degrees at 20
  • Expected to arise temporarily, from 29 September at 18:00 UTC, to day 30 of the month at 00:00 UTC
  • Clouds: Broken sky at 488 meters
  • Visibility: 7000 meters
  • Other: Light showers of rain

Airports near FIMR

No airports found within 100nm radius.